Changsha Huanghua Airport
ZGHA : now visible

Airfield :











YOU CAN JOIN US ON...

 
LOGIN :

Register | Disclaimer

   EN    FR    IT 

 









Legend :    VFR   Marginal VFR   IFR   Intensive IFR   Very Intensive IFR
Visi :
Ceiling :
>= 8 km
>= 3000ft
5 to 8 km
1000 to 3000 ft
1500m to 5 km
500 to 1000 ft
800 to 1500m
200 to 500 ft
< 800m
< 200 ft
Symbols :   Thunderstorms  Fog  Heavy snow  Heavy precipitations  Wind > 20 kt







- Airport Elevation : 217 ft
- IATA code : CSX


ZGHA - Changsha Huanghua

CURRENT METAR :
  • 260900Z 22002MPS 180V280 CAVOK 29/22 Q1003 NOSIG

EXPIRED METARs :
  • 260800Z 24002MPS 200V290 9999 SCT033 29/22 Q1003 NOSIG
  • 260700Z VRB01MPS 9999 SCT030 28/23 Q1003 NOSIG

TAF TAF ZGHA
Valid from the 26 at 06:00 until the 27 at 06:00 UTC


260207Z 2606/2706 18004MPS 3500 -RA BR BKN040 TX28/2606Z TN24/2622Z
BECMG 2701/2702 35005MPS
ZGZU FIR / Asia



MET'MAP, your aeronautical weather chart ! - Copyright ORBIFLY December 2007 - Disclaimer

ORBIFLY MET'MAP TEAM :

Programming & Development : Alexandra Zaïnal
Concept & Development : Baudouin d'Aumeries
Co-Development & Prog : Marc-Olivier Méhu
Technical & hardware support : Manuel Goepfert

Contact : metmap@orbifly.com




SOURCES & CREDITS :

   NOAA       Earth
Advisory